Time;durP1;ratioP1;P1;durP2;ratioP2;P2;SDS_P1;SDS_P2;PMS_P1;PMS_P2;Temp;Humidity;BMP_temperature;BMP_pressure;BME280_temperature;BME280_humidity;BME280_pressure;Samples;Min_cycle;Max_cycle;Signal;HPM_P1;HPM_P2
2023/01/04 00:01:28;;;;;;;4.80;1.00;;;;;;;7.27;77.51;100428.63;4925093;28;20812;-90
2023/01/04 00:03:53;;;;;;;4.28;1.58;;;;;;;7.15;77.83;100425.00;4907519;28;20181;-90
2023/01/04 00:06:19;;;;;;;6.25;1.65;;;;;;;7.15;77.99;100419.56;4925234;28;20573;-91
2023/01/04 00:08:44;;;;;;;3.42;1.08;;;;;;;7.23;77.79;100416.56;4925762;28;20144;-90
2023/01/04 00:11:19;;;;;;;3.73;1.57;;;;;;;7.23;77.83;100403.00;4926330;28;20593;-90
2023/01/04 00:13:44;;;;;;;;;;;;;;;7.19;77.65;100401.78;4928899;28;20284;-91
2023/01/04 00:16:23;;;;;;;8.05;2.65;;;;;;;7.16;77.89;100403.06;4928551;28;20509;-89
2023/01/04 00:18:50;;;;;;;3.47;1.30;;;;;;;7.18;78.06;100395.53;4927114;28;20050;-90
2023/01/04 00:21:18;;;;;;;3.85;1.30;;;;;;;7.18;78.17;100398.25;4927737;28;20038;-90
2023/01/04 00:23:45;;;;;;;2.72;1.30;;;;;;;7.26;77.95;100382.75;4928325;28;20050;-90
2023/01/04 00:26:23;;;;;;;6.25;1.60;;;;;;;7.16;78.07;100375.16;4928395;28;20038;-90
2023/01/04 00:28:53;;;;;;;10.93;1.50;;;;;;;7.21;78.54;100367.13;4929175;28;20054;-91
2023/01/04 00:31:19;;;;;;;5.07;1.10;;;;;;;7.20;78.00;100368.22;4930102;28;20172;-89
2023/01/04 00:33:44;;;;;;;3.03;0.80;;;;;;;7.21;78.24;100372.56;4927955;28;20060;-89
2023/01/04 00:36:12;;;;;;;2.53;1.00;;;;;;;7.26;78.04;100332.00;4927407;28;20600;-90
2023/01/04 00:38:38;;;;;;;4.03;1.30;;;;;;;7.25;78.34;100357.50;4926144;28;20345;-89
2023/01/04 00:41:04;;;;;;;2.67;0.90;;;;;;;7.28;78.48;100356.22;4927810;28;20681;-90
2023/01/04 00:43:30;;;;;;;4.03;1.65;;;;;;;7.25;78.26;100352.06;4927050;28;20643;-90
2023/01/04 00:45:55;;;;;;;5.03;1.73;;;;;;;7.35;78.27;100344.22;4927736;28;20348;-89
2023/01/04 00:48:21;;;;;;;12.18;1.88;;;;;;;7.32;78.39;100325.66;4927919;28;20615;-89
2023/01/04 00:50:48;;;;;;;5.60;1.55;;;;;;;7.35;78.05;100341.50;4928472;28;20507;-89
2023/01/04 00:53:14;;;;;;;6.15;1.70;;;;;;;7.30;78.38;100327.78;4927240;28;20892;-90
2023/01/04 00:55:40;;;;;;;7.07;1.23;;;;;;;7.34;78.28;100315.41;4928713;28;20902;-89
2023/01/04 00:58:06;;;;;;;3.95;1.40;;;;;;;7.31;77.97;100293.34;4927503;28;20148;-88
2023/01/04 01:00:31;;;;;;;2.40;0.88;;;;;;;7.37;78.35;100316.84;4929204;28;20042;-89
2023/01/04 01:02:57;;;;;;;8.65;1.25;;;;;;;7.39;79.11;100309.31;4927979;28;20203;-89
2023/01/04 01:05:22;;;;;;;5.88;1.25;;;;;;;7.35;79.45;100308.97;4911160;28;20256;-89
2023/01/04 01:07:47;;;;;;;4.80;1.58;;;;;;;7.31;79.92;100310.47;4928009;28;20294;-89
2023/01/04 01:10:13;;;;;;;4.50;1.20;;;;;;;7.39;80.17;100300.34;4928494;28;20584;-89
2023/01/04 01:12:38;;;;;;;5.32;1.45;;;;;;;7.39;80.69;100300.34;4928391;28;20139;-89
2023/01/04 01:15:04;;;;;;;8.30;2.80;;;;;;;7.29;81.35;100288.16;4927855;28;20686;-90
2023/01/04 01:17:29;;;;;;;2.78;1.20;;;;;;;7.34;81.57;100277.44;4926857;28;20731;-90
2023/01/04 01:19:54;;;;;;;4.33;1.50;;;;;;;7.33;81.94;100289.38;4928410;28;20669;-90
2023/01/04 01:22:19;;;;;;;1.93;1.07;;;;;;;7.33;82.20;100283.94;4926638;28;20417;-89
2023/01/04 01:24:45;;;;;;;2.83;1.08;;;;;;;7.30;82.70;100270.81;4927205;28;20906;-90
2023/01/04 01:27:10;;;;;;;5.30;1.00;;;;;;;7.27;82.81;100284.84;4927211;28;21098;-90
2023/01/04 01:29:35;;;;;;;4.22;1.70;;;;;;;7.29;83.39;100276.50;4909800;28;20045;-90
2023/01/04 01:32:00;;;;;;;4.43;1.90;;;;;;;7.27;84.01;100262.31;4925546;28;20261;-90
2023/01/04 01:34:26;;;;;;;8.38;3.63;;;;;;;7.20;84.16;100273.28;4926939;28;20941;-89
2023/01/04 01:36:51;;;;;;;4.70;1.05;;;;;;;7.23;84.70;100262.81;4909136;28;20046;-90
2023/01/04 01:39:16;;;;;;;3.47;1.05;;;;;;;7.20;85.29;100259.72;4925779;28;21058;-89
2023/01/04 01:41:42;;;;;;;6.25;1.35;;;;;;;7.22;85.81;100250.28;4926440;28;20038;-89
2023/01/04 01:44:41;;;;;;;2.45;0.98;;;;;;;7.14;86.05;100252.50;4925671;28;20049;-89
2023/01/04 01:47:13;;;;;;;21.17;2.10;;;;;;;7.15;86.49;100243.31;4925951;28;20388;-89
2023/01/04 01:49:41;;;;;;;6.95;1.60;;;;;;;7.05;86.99;100238.44;4926932;28;20035;-89
2023/01/04 01:52:16;;;;;;;6.07;1.30;;;;;;;7.08;87.73;100244.22;4927818;28;20065;-90
2023/01/04 01:54:46;;;;;;;3.08;1.35;;;;;;;7.04;87.55;100232.19;4926655;28;20042;-89
2023/01/04 01:57:17;;;;;;;5.38;1.45;;;;;;;7.20;87.86;100238.03;4927054;28;20046;-89
2023/01/04 01:59:47;;;;;;;4.60;1.20;;;;;;;7.20;87.89;100236.13;4926200;28;20816;-89
2023/01/04 02:02:12;;;;;;;9.27;1.60;;;;;;;7.13;88.21;100224.56;4929611;28;20042;-89
2023/01/04 02:04:41;;;;;;;3.42;1.50;;;;;;;7.14;88.09;100228.09;4931977;28;20661;-89
2023/01/04 02:07:09;;;;;;;8.43;2.53;;;;;;;7.20;88.29;100228.00;4929836;28;20712;-89
2023/01/04 02:09:35;;;;;;;3.25;1.10;;;;;;;7.30;87.95;100232.84;4930698;28;20081;-89
2023/01/04 02:12:01;;;;;;;7.82;1.00;;;;;;;7.31;88.37;100229.09;4930360;28;20034;-89
2023/01/04 02:14:26;;;;;;;2.30;0.88;;;;;;;7.28;88.21;100237.69;4930223;28;20046;-89
2023/01/04 02:17:16;;;;;;;4.03;1.95;;;;;;;7.22;88.91;100225.06;4928949;28;20819;-89
2023/01/04 02:19:56;;;;;;;10.48;1.17;;;;;;;7.26;88.98;100212.66;4929370;28;20148;-89
2023/01/04 02:22:43;;;;;;;3.90;1.02;;;;;;;7.26;89.11;100212.66;4930212;28;20476;-89
2023/01/04 02:25:37;;;;;;;4.93;1.20;;;;;;;7.18;89.83;100211.13;4931124;28;20149;-89
2023/01/04 02:28:14;;;;;;;21.30;3.05;;;;;;;7.27;90.29;100208.91;4930451;28;20650;-90
2023/01/04 02:30:43;;;;;;;3.55;0.85;;;;;;;7.18;90.60;100213.03;4931310;28;20160;-89
2023/01/04 02:33:14;;;;;;;5.10;1.58;;;;;;;7.19;91.50;100188.38;4931215;28;20068;-89
2023/01/04 02:35:52;;;;;;;5.38;1.23;;;;;;;7.14;91.68;100182.00;4930736;28;20038;-89
2023/01/04 02:38:33;;;;;;;7.25;2.42;;;;;;;7.10;92.33;100187.03;4929748;28;20493;-89
2023/01/04 02:41:12;;;;;;;4.88;2.08;;;;;;;7.14;92.59;100180.09;4929989;28;20416;-89
2023/01/04 02:46:42;;;;;;;7.07;1.90;;;;;;;7.02;93.86;100174.63;4929587;28;20080;-89
2023/01/04 02:51:51;;;;;;;4.72;1.80;;;;;;;7.02;94.78;100168.41;4930465;28;20615;-89
2023/01/04 02:54:31;;;;;;;3.38;1.13;;;;;;;7.08;94.72;100167.47;4929126;28;20050;-89
2023/01/04 02:57:41;;;;;;;4.75;2.13;;;;;;;7.10;94.53;100168.06;4929606;28;20046;-89
2023/01/04 03:07:08;;;;;;;10.25;1.27;;;;;;;7.10;95.26;100159.91;4831918;29;20233;-89
2023/01/04 03:09:36;;;;;;;3.92;1.25;;;;;;;7.10;95.59;100151.78;4931330;28;20779;-90
2023/01/04 03:15:00;;;;;;;3.97;1.27;;;;;;;7.17;95.92;100149.81;4930999;28;20081;-89
2023/01/04 03:17:29;;;;;;;4.85;1.48;;;;;;;7.20;95.58;100143.91;4929963;28;20077;-89
2023/01/04 03:19:57;;;;;;;5.90;1.48;;;;;;;7.25;96.10;100156.78;4930571;28;20104;-89
2023/01/04 03:36:45;;;;;;;4.47;1.60;;;;;;;7.35;96.53;100119.06;4929165;28;20605;-89
2023/01/04 03:48:28;;;;;;;4.03;1.50;;;;;;;7.39;96.69;100102.31;4933347;28;20092;-89
2023/01/04 03:51:28;;;;;;;5.50;1.30;;;;;;;7.43;96.89;100108.91;4933050;28;20038;-89
2023/01/04 03:54:10;;;;;;;2.65;1.38;;;;;;;7.41;96.74;100094.75;4933076;28;20612;-89
2023/01/04 03:56:40;;;;;;;5.57;1.27;;;;;;;7.52;96.48;100091.25;4934180;28;20184;-89
2023/01/04 03:59:06;;;;;;;6.15;1.38;;;;;;;7.58;95.77;100101.16;4934178;28;20068;-89
2023/01/04 04:01:32;;;;;;;4.82;1.58;;;;;;;7.54;96.82;100099.97;4933812;28;20128;-89
2023/01/04 04:09:25;;;;;;;2.53;0.70;;;;;;;7.72;95.55;100079.19;4933195;28;20811;-88
2023/01/04 04:11:50;;;;;;;2.78;1.05;;;;;;;7.70;95.39;100075.88;4933924;28;20941;-90
2023/01/04 04:14:15;;;;;;;3.50;1.40;;;;;;;7.70;95.93;100071.28;4931130;28;21157;-89
2023/01/04 04:16:40;;;;;;;3.00;1.40;;;;;;;7.68;95.97;100062.56;4932142;28;20268;-90
2023/01/04 04:19:06;;;;;;;2.60;1.17;;;;;;;7.63;96.37;100076.00;4932412;28;20614;-89
2023/01/04 04:21:31;;;;;;;3.55;1.10;;;;;;;7.66;96.62;100072.00;4932664;28;20260;-89
2023/01/04 04:23:57;;;;;;;4.05;1.38;;;;;;;7.62;97.03;100068.94;4932627;28;20099;-89
2023/01/04 04:26:23;;;;;;;3.97;1.00;;;;;;;7.65;96.60;100071.16;4933176;28;20096;-90
2023/01/04 04:28:48;;;;;;;3.92;1.55;;;;;;;7.67;96.43;100070.91;4932381;28;20274;-89
2023/01/04 04:31:14;;;;;;;3.38;1.00;;;;;;;7.61;96.78;100052.91;4933274;28;20038;-90
2023/01/04 04:33:39;;;;;;;7.15;0.88;;;;;;;7.65;96.43;100045.91;4932274;28;20039;-90
2023/01/04 04:36:05;;;;;;;4.20;1.40;;;;;;;7.68;96.93;100057.13;4931082;28;20165;-90
2023/01/04 04:38:30;;;;;;;4.78;1.00;;;;;;;7.65;97.07;100035.06;4931434;28;20109;-90
2023/01/04 04:43:40;;;;;;;3.25;0.95;;;;;;;7.60;97.60;100033.06;4932978;28;20143;-89
2023/01/04 04:46:05;;;;;;;7.20;1.00;;;;;;;7.64;97.50;100028.81;4931838;28;20046;-89
2023/01/04 04:48:30;;;;;;;4.28;2.05;;;;;;;7.63;97.39;100032.59;4933162;28;20992;-90
2023/01/04 04:50:56;;;;;;;3.30;1.17;;;;;;;7.66;97.60;100020.44;4934041;28;21650;-89
2023/01/04 04:53:21;;;;;;;1.40;0.70;;;;;;;7.66;98.38;100023.16;4932046;28;20038;-90
2023/01/04 04:55:49;;;;;;;3.53;0.90;;;;;;;7.69;98.62;100017.22;4931551;28;22018;-90
2023/01/04 04:58:15;;;;;;;3.60;1.02;;;;;;;7.67;99.03;100011.22;4929349;28;20045;-89
2023/01/04 05:00:40;;;;;;;1.63;0.50;;;;;;;7.66;99.17;100012.28;4932149;28;20157;-90
2023/01/04 05:03:05;;;;;;;2.95;0.75;;;;;;;7.62;99.16;100017.38;4931157;28;20465;-89
2023/01/04 05:05:31;;;;;;;1.90;1.13;;;;;;;7.68;99.26;100010.16;4932085;28;21238;-90
2023/01/04 05:07:56;;;;;;;2.57;0.57;;;;;;;7.65;99.04;100010.63;4931771;28;20264;-90
2023/01/04 05:10:21;;;;;;;3.45;1.10;;;;;;;7.64;99.52;100000.84;4929741;28;20274;-90
2023/01/04 05:12:58;;;;;;;1.73;0.80;;;;;;;7.63;99.75;99997.31;4931654;28;20676;-90
2023/01/04 05:15:35;;;;;;;2.28;0.50;;;;;;;7.68;100.00;99985.75;4930091;28;21124;-90
2023/01/04 05:18:01;;;;;;;2.00;0.70;;;;;;;7.67;99.79;99975.94;4930945;28;20046;-89
2023/01/04 05:20:26;;;;;;;1.73;0.47;;;;;;;7.68;99.82;99980.31;4912988;28;20089;-89
2023/01/04 05:22:51;;;;;;;1.58;0.47;;;;;;;7.67;100.00;99986.78;4931346;28;20581;-90
2023/01/04 05:25:17;;;;;;;1.35;0.40;;;;;;;7.75;100.00;99980.19;4930826;28;20563;-89
2023/01/04 05:27:43;;;;;;;1.13;0.60;;;;;;;7.76;100.00;99990.78;4913536;28;20052;-90
2023/01/04 05:32:55;;;;;;;1.60;0.60;;;;;;;7.75;100.00;99972.84;4931901;28;20045;-89
2023/01/04 05:35:20;;;;;;;1.50;0.60;;;;;;;7.82;100.00;99970.00;4930856;28;20622;-89
2023/01/04 05:37:45;;;;;;;1.67;0.60;;;;;;;7.86;99.97;99975.75;4931820;28;20046;-89
2023/01/04 05:40:11;;;;;;;1.05;0.45;;;;;;;7.86;100.00;99965.75;4929699;28;20407;-90
2023/01/04 05:42:36;;;;;;;2.37;0.70;;;;;;;7.93;99.82;99957.47;4932816;28;20928;-90
2023/01/04 05:45:01;;;;;;;1.45;0.50;;;;;;;7.94;99.67;99950.94;4930847;28;20415;-90
2023/01/04 05:47:27;;;;;;;1.30;0.60;;;;;;;7.96;99.23;99956.97;4931632;28;20536;-90
2023/01/04 05:49:53;;;;;;;2.10;0.60;;;;;;;7.99;99.17;99951.06;4930985;28;20563;-89
2023/01/04 05:52:18;;;;;;;1.08;0.45;;;;;;;8.00;99.60;99960.84;4913245;28;20038;-90
2023/01/04 05:54:44;;;;;;;1.38;0.60;;;;;;;7.98;99.50;99957.53;4931140;28;20488;-89
2023/01/04 05:57:09;;;;;;;3.42;1.08;;;;;;;8.02;99.53;99956.00;4930737;28;20675;-88
2023/01/04 05:59:35;;;;;;;1.95;0.40;;;;;;;8.07;99.35;99952.56;4931087;28;20042;-88
2023/01/04 06:02:00;;;;;;;0.73;0.47;;;;;;;8.04;99.45;99956.56;4931357;28;20335;-89
2023/01/04 06:04:26;;;;;;;2.17;0.55;;;;;;;8.14;99.08;99952.38;4930392;28;20038;-89
2023/01/04 06:06:51;;;;;;;3.08;0.75;;;;;;;8.12;98.78;99954.53;4930781;28;20049;-89
2023/01/04 06:09:17;;;;;;;0.82;0.30;;;;;;;8.10;99.54;99951.22;4930969;28;20550;-89
2023/01/04 06:11:42;;;;;;;1.42;0.70;;;;;;;8.09;98.92;99947.72;4928886;28;20096;-89
2023/01/04 06:14:07;;;;;;;1.27;0.82;;;;;;;8.18;98.83;99934.53;4930081;28;20064;-89
2023/01/04 06:16:33;;;;;;;1.38;0.70;;;;;;;8.21;98.57;99925.09;4929358;28;20833;-89
2023/01/04 06:18:59;;;;;;;2.38;0.70;;;;;;;8.20;98.28;99932.41;4930154;28;20042;-90
2023/01/04 06:21:24;;;;;;;0.98;0.30;;;;;;;8.23;98.41;99937.34;4931127;28;20707;-90
2023/01/04 06:23:51;;;;;;;2.83;0.40;;;;;;;8.25;98.50;99935.22;4930432;28;20157;-90
2023/01/04 06:26:16;;;;;;;3.85;0.80;;;;;;;8.29;98.07;99927.41;4929161;28;21318;-90
2023/01/04 06:28:42;;;;;;;0.50;0.30;;;;;;;8.27;97.87;99924.94;4930326;28;20035;-88
2023/01/04 06:31:09;;;;;;;0.70;0.40;;;;;;;8.27;98.29;99911.34;4930236;28;20621;-89
2023/01/04 06:33:34;;;;;;;0.98;0.40;;;;;;;8.31;97.91;99910.84;4931166;28;20851;-90
2023/01/04 06:36:00;;;;;;;0.50;0.30;;;;;;;8.33;97.63;99908.72;4930472;28;21305;-88
2023/01/04 06:38:25;;;;;;;1.35;0.30;;;;;;;8.34;97.45;99919.31;4930892;28;20618;-89
2023/01/04 06:40:51;;;;;;;0.70;0.25;;;;;;;8.37;97.56;99905.25;4930541;28;20616;-88
2023/01/04 06:43:16;;;;;;;2.15;0.52;;;;;;;8.34;98.34;99916.59;4930646;28;20910;-89
2023/01/04 06:45:41;;;;;;;1.00;0.43;;;;;;;8.38;98.78;99919.69;4930405;28;20034;-89
2023/01/04 06:48:07;;;;;;;1.50;0.53;;;;;;;8.25;99.45;99910.78;4930255;28;20119;-89
2023/01/04 06:50:32;;;;;;;1.00;0.30;;;;;;;8.31;99.79;99910.84;4929779;28;20351;-89
2023/01/04 06:52:58;;;;;;;2.20;0.50;;;;;;;8.35;99.64;99922.88;4929672;28;20049;-89
2023/01/04 06:55:23;;;;;;;1.13;0.40;;;;;;;8.33;99.97;99916.88;4930469;28;20825;-89
2023/01/04 06:57:48;;;;;;;1.15;0.40;;;;;;;8.35;99.72;99917.44;4930343;28;20164;-89
2023/01/04 07:00:14;;;;;;;1.30;0.35;;;;;;;8.31;99.93;99917.13;4930908;28;20033;-89
2023/01/04 07:02:39;;;;;;;0.38;0.15;;;;;;;8.31;100.00;99911.69;4930795;28;20034;-89
2023/01/04 07:05:05;;;;;;;0.40;0.20;;;;;;;8.33;100.00;99909.53;4930303;28;20139;-90
2023/01/04 07:07:31;;;;;;;1.85;0.55;;;;;;;8.24;100.00;99902.84;4929584;28;20084;-89
2023/01/04 07:09:57;;;;;;;1.77;0.65;;;;;;;8.31;99.96;99899.97;4930565;28;20034;-89
2023/01/04 07:12:22;;;;;;;1.20;0.20;;;;;;;8.35;99.96;99918.28;4929548;28;20693;-89
2023/01/04 07:14:48;;;;;;;1.27;0.40;;;;;;;8.40;99.49;99914.81;4930035;28;20481;-89
2023/01/04 07:17:13;;;;;;;1.60;0.47;;;;;;;8.43;99.49;99913.50;4929324;28;20047;-91
2023/01/04 07:19:38;;;;;;;1.57;0.70;;;;;;;8.47;99.18;99912.75;4930522;28;20691;-89
2023/01/04 07:22:04;;;;;;;2.42;0.43;;;;;;;8.46;99.24;99905.66;4928943;28;20264;-89
2023/01/04 07:24:29;;;;;;;1.10;0.20;;;;;;;8.50;98.78;99912.25;4928868;28;20104;-90
2023/01/04 07:26:54;;;;;;;0.75;0.38;;;;;;;8.52;98.80;99915.53;4929034;28;20255;-89
2023/01/04 07:29:21;;;;;;;1.53;0.40;;;;;;;8.53;98.86;99922.63;4929437;28;20592;-89
2023/01/04 07:31:49;;;;;;;0.60;0.30;;;;;;;8.57;99.18;99919.44;4928710;28;20716;-89
2023/01/04 07:34:16;;;;;;;1.80;0.57;;;;;;;8.56;99.70;99924.06;4928732;28;20088;-88
2023/01/04 07:36:41;;;;;;;5.78;1.90;;;;;;;8.49;99.94;99926.91;4928531;28;20632;-89
2023/01/04 07:39:09;;;;;;;1.02;0.45;;;;;;;8.50;100.00;99938.63;4929292;28;20088;-89
2023/01/04 07:41:36;;;;;;;1.75;0.50;;;;;;;8.53;100.00;99935.41;4929898;28;20042;-90
2023/01/04 07:44:01;;;;;;;1.58;0.43;;;;;;;8.49;100.00;99939.69;4929901;28;21325;-90
2023/01/04 07:46:27;;;;;;;1.27;0.52;;;;;;;8.52;100.00;99956.31;4928520;28;20841;-89
2023/01/04 07:48:52;;;;;;;1.67;1.17;;;;;;;8.56;100.00;99961.25;4929193;28;20041;-88
2023/01/04 07:51:17;;;;;;;1.35;0.50;;;;;;;8.57;100.00;99952.06;4929319;28;20046;-88
2023/01/04 07:53:43;;;;;;;1.13;0.40;;;;;;;8.63;100.00;99953.78;4912257;28;20085;-89
2023/01/04 07:56:08;;;;;;;17.40;3.08;;;;;;;8.61;100.00;99942.34;4929278;28;20380;-89
2023/01/04 07:58:34;;;;;;;2.88;0.40;;;;;;;8.69;100.00;99938.38;4928733;28;20038;-89
2023/01/04 08:01:10;;;;;;;1.90;0.70;;;;;;;8.69;100.00;99931.06;4928781;28;20663;-89
2023/01/04 08:03:36;;;;;;;2.53;0.70;;;;;;;8.63;100.00;99926.63;4929153;28;20402;-89
2023/01/04 08:06:05;;;;;;;1.77;0.50;;;;;;;8.66;100.00;99923.41;4928144;28;20688;-88
2023/01/04 08:08:30;;;;;;;2.40;1.13;;;;;;;8.66;100.00;99917.16;4929541;28;20160;-88
2023/01/04 08:11:00;;;;;;;1.92;0.82;;;;;;;8.68;100.00;99910.41;4929282;28;20975;-88
2023/01/04 08:13:26;;;;;;;1.77;0.60;;;;;;;8.62;100.00;99919.53;4906690;28;20409;-89
2023/01/04 08:15:52;;;;;;;0.80;0.50;;;;;;;8.64;100.00;99920.13;4929271;28;20673;-88
2023/01/04 08:18:17;;;;;;;2.10;0.90;;;;;;;8.67;100.00;99911.47;4906191;28;20623;-88
2023/01/04 08:20:42;;;;;;;1.45;0.52;;;;;;;8.71;100.00;99918.03;4929522;28;21183;-89
2023/01/04 08:23:08;;;;;;;5.13;0.63;;;;;;;8.67;100.00;99919.59;4929283;28;20726;-88
2023/01/04 08:25:33;;;;;;;3.37;1.57;;;;;;;8.67;100.00;99911.47;4928765;28;20427;-88
2023/01/04 08:27:58;;;;;;;1.80;0.50;;;;;;;8.69;100.00;99900.31;4928668;28;20409;-88
2023/01/04 08:30:23;;;;;;;0.90;0.60;;;;;;;8.68;100.00;99898.69;4928552;28;20789;-88
2023/01/04 08:32:49;;;;;;;1.20;0.60;;;;;;;8.67;100.00;99919.59;4913519;28;20490;-88
2023/01/04 08:35:14;;;;;;;22.52;2.60;;;;;;;8.62;100.00;99901.31;4931270;28;20379;-89
2023/01/04 08:37:40;;;;;;;1.67;0.60;;;;;;;8.67;100.00;99903.31;4914063;28;20565;-88
2023/01/04 08:40:06;;;;;;;1.10;0.43;;;;;;;8.75;100.00;99875.69;4931114;28;20747;-90
2023/01/04 08:42:31;;;;;;;1.70;0.60;;;;;;;8.83;100.00;99889.94;4930422;28;20042;-90
2023/01/04 08:44:57;;;;;;;0.88;0.60;;;;;;;8.90;100.00;99882.44;4913061;28;20076;-89
2023/01/04 08:47:22;;;;;;;1.60;0.80;;;;;;;8.90;100.00;99876.16;4931494;28;20567;-90
2023/01/04 08:49:47;;;;;;;2.63;0.70;;;;;;;8.94;100.00;99871.88;4931319;28;20078;-89
2023/01/04 08:52:14;;;;;;;2.27;0.97;;;;;;;8.98;100.00;99868.41;4932722;28;20488;-90
2023/01/04 08:54:39;;;;;;;7.38;1.17;;;;;;;9.05;100.00;99851.09;4934295;28;20918;-90
2023/01/04 08:57:05;;;;;;;2.22;0.70;;;;;;;9.13;100.00;99850.66;4930356;28;20038;-89
2023/01/04 08:59:30;;;;;;;2.20;0.60;;;;;;;9.14;99.84;99863.16;4928145;28;20791;-90
2023/01/04 09:01:55;;;;;;;3.60;0.97;;;;;;;9.12;99.88;99865.31;4929913;28;20882;-90
2023/01/04 09:04:20;;;;;;;1.27;0.60;;;;;;;9.19;100.00;99857.78;4929262;28;20932;-90
2023/01/04 09:06:46;;;;;;;2.77;0.83;;;;;;;9.20;100.00;99867.59;4912179;28;20726;-89
2023/01/04 09:09:11;;;;;;;1.38;0.65;;;;;;;9.20;100.00;99853.16;4912228;28;20494;-90
2023/01/04 09:11:37;;;;;;;4.43;1.08;;;;;;;9.26;100.00;99854.03;4912219;28;20283;-90
2023/01/04 09:14:02;;;;;;;1.92;0.70;;;;;;;9.29;100.00;99853.53;4930055;28;21070;-89
2023/01/04 09:16:28;;;;;;;1.70;0.50;;;;;;;9.25;100.00;99852.41;4929831;28;20042;-85
2023/01/04 09:18:53;;;;;;;1.83;0.77;;;;;;;9.29;100.00;99848.09;4931149;28;20042;-90
2023/01/04 09:21:20;;;;;;;2.63;1.25;;;;;;;9.32;100.00;99858.47;4930152;28;20803;-89
2023/01/04 09:23:46;;;;;;;2.95;1.10;;;;;;;9.27;100.00;99861.97;4906154;28;20154;-89
2023/01/04 09:26:15;;;;;;;1.13;0.93;;;;;;;9.30;100.00;99857.91;4929223;28;20085;-87
2023/01/04 09:28:40;;;;;;;2.28;1.00;;;;;;;9.28;100.00;99847.28;4931083;28;20034;-89
2023/01/04 09:31:15;;;;;;;1.40;0.60;;;;;;;9.32;100.00;99858.47;4930299;28;20672;-89
2023/01/04 09:33:41;;;;;;;3.08;0.70;;;;;;;9.34;100.00;99862.59;4930080;28;20046;-86
2023/01/04 09:36:07;;;;;;;1.10;0.60;;;;;;;9.38;100.00;99857.44;4930048;28;20049;-88
2023/01/04 09:38:34;;;;;;;4.65;0.93;;;;;;;9.39;100.00;99853.66;4929715;28;20041;-89
2023/01/04 09:41:11;;;;;;;1.73;0.68;;;;;;;9.44;100.00;99861.88;4884115;28;1333216;-89
2023/01/04 09:43:46;;;;;;;2.85;1.13;;;;;;;9.41;100.00;99829.75;4929923;28;20676;-89
2023/01/04 09:46:36;;;;;;;2.45;0.65;;;;;;;9.42;100.00;99842.25;4931154;28;20559;-90
2023/01/04 09:49:20;;;;;;;3.78;0.60;;;;;;;9.45;100.00;99858.09;4916570;28;20411;-91
2023/01/04 09:52:10;;;;;;;1.60;0.90;;;;;;;9.44;100.00;99818.34;4930730;28;20266;-89
2023/01/04 09:54:46;;;;;;;5.18;0.50;;;;;;;9.49;100.00;99820.31;4929882;28;20076;-89
2023/01/04 09:57:34;;;;;;;2.25;0.73;;;;;;;9.52;100.00;99832.59;4930405;28;20136;-90
2023/01/04 10:00:09;;;;;;;4.28;0.93;;;;;;;9.52;100.00;99851.63;4930441;28;20046;-87
2023/01/04 10:02:48;;;;;;;1.73;0.60;;;;;;;9.56;100.00;99836.41;4930523;28;20056;-90
2023/01/04 10:05:20;;;;;;;1.60;0.70;;;;;;;9.60;100.00;99842.19;4930106;28;20715;-91
2023/01/04 10:07:45;;;;;;;4.22;0.80;;;;;;;9.66;100.00;99828.34;4930030;28;20163;-91
2023/01/04 10:10:13;;;;;;;2.47;0.50;;;;;;;9.63;100.00;99831.59;4930276;28;20642;-90
2023/01/04 10:13:07;;;;;;;1.88;0.63;;;;;;;9.65;100.00;99843.06;4929871;28;20060;-89
2023/01/04 10:15:39;;;;;;;0.40;0.30;;;;;;;9.62;100.00;99853.63;4930380;28;20042;-90
2023/01/04 10:18:29;;;;;;;1.73;0.68;;;;;;;9.65;100.00;99850.38;4930437;28;20442;-87
2023/01/04 10:21:01;;;;;;;4.22;0.63;;;;;;;9.72;100.00;99852.91;4930067;28;20827;-88
2023/01/04 10:23:51;;;;;;;2.63;0.82;;;;;;;9.71;100.00;99853.97;4929342;28;20049;-89
2023/01/04 10:26:25;;;;;;;1.90;0.50;;;;;;;9.73;100.00;99847.22;4929856;28;20666;-90
2023/01/04 10:29:10;;;;;;;;;;;;;;;9.72;100.00;99833.88;4930063;28;20047;-88
2023/01/04 10:31:48;;;;;;;3.80;1.27;;;;;;;9.63;100.00;99837.03;4929988;28;19921;-87
2023/01/04 10:34:25;;;;;;;0.85;0.30;;;;;;;9.61;100.00;99843.81;4930096;28;20080;-91
2023/01/04 10:36:58;;;;;;;1.13;0.60;;;;;;;9.72;100.00;99839.31;4929053;28;20047;-90
2023/01/04 10:39:28;;;;;;;3.20;0.65;;;;;;;9.72;100.00;99828.41;4930499;28;20062;-88
2023/01/04 10:42:17;;;;;;;2.30;0.80;;;;;;;9.64;100.00;99827.78;4929411;28;20042;-93
2023/01/04 10:45:01;;;;;;;1.38;0.77;;;;;;;9.66;100.00;99825.63;4929892;28;20702;-91
2023/01/04 10:48:03;;;;;;;2.20;0.63;;;;;;;9.59;100.00;99822.31;4930080;28;20528;-90
2023/01/04 10:50:52;;;;;;;1.77;0.60;;;;;;;9.60;100.00;99818.50;4929214;28;20828;-89
2023/01/04 10:53:36;;;;;;;1.55;0.88;;;;;;;9.64;100.00;99814.16;4910810;28;20034;-91
2023/01/04 10:56:07;;;;;;;;;;;;;;;9.60;100.00;99815.75;4928267;28;20042;-90
2023/01/04 10:59:12;;;;;;;1.92;0.63;;;;;;;9.55;100.00;99802.94;4929244;28;19964;-90
2023/01/04 11:01:46;;;;;;;0.82;0.22;;;;;;;9.61;100.00;99797.53;4930424;28;20700;-90
2023/01/04 11:04:28;;;;;;;1.50;0.82;;;;;;;9.72;100.00;99812.91;4929295;28;20998;-87
2023/01/04 11:06:56;;;;;;;1.83;0.70;;;;;;;9.71;100.00;99799.53;4936663;28;20804;-92
2023/01/04 11:09:25;;;;;;;4.10;1.10;;;;;;;9.66;100.00;99814.75;4929796;28;20488;-90
2023/01/04 11:11:55;;;;;;;3.63;0.95;;;;;;;9.69;100.00;99797.06;4929316;28;20041;-90
2023/01/04 11:14:23;;;;;;;1.92;0.80;;;;;;;9.67;100.00;99780.19;4929205;28;20034;-89
2023/01/04 11:16:51;;;;;;;3.60;1.70;;;;;;;9.73;100.00;99800.09;4926998;28;20160;-86
2023/01/04 11:19:16;;;;;;;1.63;0.68;;;;;;;9.82;100.00;99774.06;4929157;28;21295;-90
2023/01/04 11:22:05;;;;;;;1.55;0.70;;;;;;;9.77;100.00;99774.81;4930595;28;20642;-91
2023/01/04 11:24:31;;;;;;;4.68;2.35;;;;;;;9.80;100.00;99770.78;4929550;28;20612;-92
2023/01/04 11:27:03;;;;;;;3.30;0.90;;;;;;;9.80;100.00;99776.22;4928799;28;20034;-90
2023/01/04 11:29:34;;;;;;;4.15;1.20;;;;;;;9.84;100.00;99774.63;4929186;28;20801;-91
2023/01/04 11:32:05;;;;;;;1.85;0.80;;;;;;;9.84;100.00;99761.00;4930669;28;20057;-92
2023/01/04 11:34:51;;;;;;;3.22;1.80;;;;;;;9.80;100.00;99746.28;4929443;28;20038;-91
2023/01/04 11:37:32;;;;;;;2.83;1.10;;;;;;;9.87;100.00;99765.91;4929754;28;20077;-91
2023/01/04 11:40:16;;;;;;;5.95;0.95;;;;;;;9.91;100.00;99745.25;4907734;28;20153;-91
2023/01/04 11:42:45;;;;;;;3.95;1.02;;;;;;;9.92;100.00;99765.97;4909706;28;20702;-90
2023/01/04 11:45:26;;;;;;;2.67;0.70;;;;;;;9.91;100.00;99744.44;4910448;28;20047;-90
2023/01/04 11:47:56;;;;;;;2.25;0.80;;;;;;;9.95;100.00;99748.28;4910110;28;20049;-92
2023/01/04 11:50:37;;;;;;;2.83;1.25;;;;;;;9.91;100.00;99734.38;4910082;28;20153;-91
2023/01/04 11:53:21;;;;;;;4.18;1.15;;;;;;;9.90;100.00;99757.25;4911501;28;20642;-92
2023/01/04 11:55:46;;;;;;;2.67;1.05;;;;;;;9.87;100.00;99738.69;4909897;28;21243;-92
2023/01/04 11:58:13;;;;;;;2.42;1.42;;;;;;;9.93;100.00;99734.94;4910288;28;20717;-91
2023/01/04 12:00:50;;;;;;;79.85;9.30;;;;;;;9.90;100.00;99734.63;4909078;28;20046;-90
2023/01/04 12:03:24;;;;;;;6.63;1.67;;;;;;;9.89;100.00;99731.06;4908480;28;20065;-87
2023/01/04 12:05:49;;;;;;;1.77;0.98;;;;;;;9.88;100.00;99718.56;4908625;28;20185;-88
2023/01/04 12:08:31;;;;;;;3.13;0.77;;;;;;;9.95;100.00;99745.53;4912266;28;20042;-89
2023/01/04 12:10:58;;;;;;;1.77;0.90;;;;;;;9.93;100.00;99717.75;4913597;28;20185;-92
2023/01/04 12:13:24;;;;;;;2.55;0.93;;;;;;;9.98;100.00;99725.16;4913444;28;20697;-94
2023/01/04 12:16:20;;;;;;;17.23;2.03;;;;;;;9.95;100.00;99731.09;4912973;28;20152;-92
2023/01/04 12:18:46;;;;;;;4.75;0.98;;;;;;;9.98;100.00;99722.44;4914302;28;20073;-89
2023/01/04 12:21:19;;;;;;;1.75;0.70;;;;;;;10.05;100.00;99723.00;4913752;28;20352;-89
2023/01/04 12:23:45;;;;;;;2.17;0.90;;;;;;;10.04;100.00;99721.38;4916264;28;20511;-89
2023/01/04 12:26:12;;;;;;;2.25;1.10;;;;;;;10.02;100.00;99712.66;4913982;28;20038;-89
2023/01/04 12:28:40;;;;;;;2.22;1.10;;;;;;;10.00;100.00;99717.53;4911784;28;20622;-89
2023/01/04 12:31:18;;;;;;;3.78;2.05;;;;;;;10.03;100.00;99715.09;4912458;28;20042;-89
2023/01/04 12:33:55;;;;;;;2.42;1.27;;;;;;;10.03;100.00;99715.09;4913338;28;20536;-89
2023/01/04 12:36:38;;;;;;;1.77;0.80;;;;;;;10.07;100.00;99720.84;4912940;28;20631;-92